sensor_id;sensor_type;location;lat;lon;timestamp;pressure;altitude;pressure_sealevel;temperature;humidity
34925;BME280;21130;51.728;8.748;2023-07-31T00:01:19;99920.47;;;14.35;100.00
34925;BME280;21130;51.728;8.748;2023-07-31T00:03:46;99920.44;;;14.40;100.00
34925;BME280;21130;51.728;8.748;2023-07-31T00:06:12;99904.81;;;14.39;100.00
34925;BME280;21130;51.728;8.748;2023-07-31T00:08:40;99910.94;;;14.41;100.00
34925;BME280;21130;51.728;8.748;2023-07-31T00:11:07;99899.22;;;14.39;100.00
34925;BME280;21130;51.728;8.748;2023-07-31T00:13:34;99893.38;;;14.40;100.00
34925;BME280;21130;51.728;8.748;2023-07-31T00:16:00;99892.53;;;14.40;100.00
34925;BME280;21130;51.728;8.748;2023-07-31T00:18:27;99883.31;;;14.39;100.00
34925;BME280;21130;51.728;8.748;2023-07-31T00:20:53;99874.94;;;14.34;100.00
34925;BME280;21130;51.728;8.748;2023-07-31T00:23:20;99887.50;;;14.37;100.00
34925;BME280;21130;51.728;8.748;2023-07-31T00:25:48;99876.34;;;14.37;100.00
34925;BME280;21130;51.728;8.748;2023-07-31T00:28:14;99875.50;;;14.36;100.00
34925;BME280;21130;51.728;8.748;2023-07-31T00:30:40;99870.75;;;14.37;100.00
34925;BME280;21130;51.728;8.748;2023-07-31T00:33:07;99867.13;;;14.36;100.00
34925;BME280;21130;51.728;8.748;2023-07-31T00:35:34;99867.41;;;14.40;100.00
34925;BME280;21130;51.728;8.748;2023-07-31T00:38:00;99867.41;;;14.40;100.00
34925;BME280;21130;51.728;8.748;2023-07-31T00:40:27;99867.69;;;14.38;100.00
34925;BME280;21130;51.728;8.748;2023-07-31T00:42:55;99862.09;;;14.38;100.00
34925;BME280;21130;51.728;8.748;2023-07-31T00:45:22;99858.72;;;14.41;100.00
34925;BME280;21130;51.728;8.748;2023-07-31T00:47:50;99863.47;;;14.41;100.00
34925;BME280;21130;51.728;8.748;2023-07-31T00:50:16;99855.09;;;14.46;100.00
34925;BME280;21130;51.728;8.748;2023-07-31T00:52:43;99859.84;;;14.45;100.00
34925;BME280;21130;51.728;8.748;2023-07-31T00:55:10;99852.00;;;14.47;100.00
34925;BME280;21130;51.728;8.748;2023-07-31T00:57:38;99842.78;;;14.47;100.00
34925;BME280;21130;51.728;8.748;2023-07-31T01:00:09;99848.66;;;14.51;100.00
34925;BME280;21130;51.728;8.748;2023-07-31T01:02:36;99836.09;;;14.48;100.00
34925;BME280;21130;51.728;8.748;2023-07-31T01:05:03;99836.91;;;14.48;100.00
34925;BME280;21130;51.728;8.748;2023-07-31T01:07:35;99840.84;;;14.47;100.00
34925;BME280;21130;51.728;8.748;2023-07-31T01:10:08;99834.13;;;14.48;100.00
34925;BME280;21130;51.728;8.748;2023-07-31T01:12:38;99840.25;;;14.51;100.00
34925;BME280;21130;51.728;8.748;2023-07-31T01:15:06;99828.81;;;14.52;100.00
34925;BME280;21130;51.728;8.748;2023-07-31T01:17:37;99822.13;;;14.53;100.00
34925;BME280;21130;51.728;8.748;2023-07-31T01:20:08;99839.72;;;14.54;100.00
34925;BME280;21130;51.728;8.748;2023-07-31T01:22:54;99838.63;;;14.55;100.00
34925;BME280;21130;51.728;8.748;2023-07-31T01:25:41;99826.84;;;14.58;100.00
34925;BME280;21130;51.728;8.748;2023-07-31T01:28:13;99833.84;;;14.55;100.00
34925;BME280;21130;51.728;8.748;2023-07-31T01:30:43;99837.75;;;14.54;100.00
34925;BME280;21130;51.728;8.748;2023-07-31T01:33:10;99837.19;;;14.52;100.00
34925;BME280;21130;51.728;8.748;2023-07-31T01:35:37;99829.38;;;14.54;100.00
34925;BME280;21130;51.728;8.748;2023-07-31T01:38:05;99834.41;;;14.52;100.00
34925;BME280;21130;51.728;8.748;2023-07-31T01:40:31;99835.81;;;14.55;100.00
34925;BME280;21130;51.728;8.748;2023-07-31T01:42:59;99827.97;;;14.57;100.00
34925;BME280;21130;51.728;8.748;2023-07-31T01:45:26;99823.50;;;14.51;100.00
34925;BME280;21130;51.728;8.748;2023-07-31T01:47:52;99829.66;;;14.53;100.00
34925;BME280;21130;51.728;8.748;2023-07-31T01:50:19;99825.75;;;14.54;100.00
34925;BME280;21130;51.728;8.748;2023-07-31T01:52:45;99823.78;;;14.49;100.00
34925;BME280;21130;51.728;8.748;2023-07-31T01:55:12;99825.47;;;14.50;100.00
34925;BME280;21130;51.728;8.748;2023-07-31T01:57:38;99829.38;;;14.49;100.00
34925;BME280;21130;51.728;8.748;2023-07-31T02:00:07;99821.34;;;14.42;100.00
34925;BME280;21130;51.728;8.748;2023-07-31T02:02:34;99831.63;;;14.42;100.00
34925;BME280;21130;51.728;8.748;2023-07-31T02:05:00;99824.66;;;14.44;100.00
34925;BME280;21130;51.728;8.748;2023-07-31T02:07:27;99816.31;;;14.39;100.00
34925;BME280;21130;51.728;8.748;2023-07-31T02:09:53;99823.59;;;14.35;100.00
34925;BME280;21130;51.728;8.748;2023-07-31T02:12:20;99817.19;;;14.35;100.00
34925;BME280;21130;51.728;8.748;2023-07-31T02:14:46;99824.44;;;14.31;100.00
34925;BME280;21130;51.728;8.748;2023-07-31T02:17:14;99818.03;;;14.30;100.00
34925;BME280;21130;51.728;8.748;2023-07-31T02:19:41;99811.97;;;14.18;100.00
34925;BME280;21130;51.728;8.748;2023-07-31T02:22:07;99819.50;;;14.17;100.00
34925;BME280;21130;51.728;8.748;2023-07-31T02:24:34;99816.44;;;14.14;100.00
34925;BME280;21130;51.728;8.748;2023-07-31T02:27:00;99812.28;;;14.06;100.00
34925;BME280;21130;51.728;8.748;2023-07-31T02:29:27;99818.41;;;14.08;100.00
34925;BME280;21130;51.728;8.748;2023-07-31T02:31:53;99807.25;;;14.08;100.00
34925;BME280;21130;51.728;8.748;2023-07-31T02:34:21;99813.97;;;14.07;100.00
34925;BME280;21130;51.728;8.748;2023-07-31T02:36:47;99808.94;;;14.04;100.00
34925;BME280;21130;51.728;8.748;2023-07-31T02:39:14;99810.88;;;14.03;100.00
34925;BME280;21130;51.728;8.748;2023-07-31T02:41:41;99801.97;;;14.01;100.00
34925;BME280;21130;51.728;8.748;2023-07-31T02:44:07;99812.88;;;13.98;100.00
34925;BME280;21130;51.728;8.748;2023-07-31T02:46:34;99805.88;;;14.00;100.00
34925;BME280;21130;51.728;8.748;2023-07-31T02:49:00;99808.69;;;13.95;100.00
34925;BME280;21130;51.728;8.748;2023-07-31T02:51:28;99797.22;;;13.97;100.00
34925;BME280;21130;51.728;8.748;2023-07-31T02:53:54;99804.22;;;13.94;100.00
34925;BME280;21130;51.728;8.748;2023-07-31T02:56:21;99804.22;;;13.99;100.00
34925;BME280;21130;51.728;8.748;2023-07-31T02:58:47;99807.25;;;14.08;100.00
34925;BME280;21130;51.728;8.748;2023-07-31T03:01:14;99806.13;;;14.09;100.00
34925;BME280;21130;51.728;8.748;2023-07-31T03:03:41;99800.25;;;14.16;100.00
34925;BME280;21130;51.728;8.748;2023-07-31T03:06:07;99802.19;;;14.20;100.00
34925;BME280;21130;51.728;8.748;2023-07-31T03:08:35;99804.13;;;14.25;100.00
34925;BME280;21130;51.728;8.748;2023-07-31T03:11:01;99802.69;;;14.27;100.00
34925;BME280;21130;51.728;8.748;2023-07-31T03:13:28;99801.28;;;14.30;100.00
34925;BME280;21130;51.728;8.748;2023-07-31T03:15:55;99801.28;;;14.35;100.00
34925;BME280;21130;51.728;8.748;2023-07-31T03:18:21;99804.59;;;14.37;100.00
34925;BME280;21130;51.728;8.748;2023-07-31T03:20:48;99795.94;;;14.39;100.00
34925;BME280;21130;51.728;8.748;2023-07-31T03:23:15;99802.66;;;14.38;100.00
34925;BME280;21130;51.728;8.748;2023-07-31T03:25:55;99812.69;;;14.39;100.00
34925;BME280;21130;51.728;8.748;2023-07-31T03:28:22;99812.09;;;14.42;100.00
34925;BME280;21130;51.728;8.748;2023-07-31T03:30:49;99809.03;;;14.43;100.00
34925;BME280;21130;51.728;8.748;2023-07-31T03:33:15;99803.16;;;14.45;100.00
34925;BME280;21130;51.728;8.748;2023-07-31T03:35:42;99810.16;;;14.42;100.00
34925;BME280;21130;51.728;8.748;2023-07-31T03:38:08;99811.53;;;14.45;100.00
34925;BME280;21130;51.728;8.748;2023-07-31T03:40:35;99804.00;;;14.45;100.00
34925;BME280;21130;51.728;8.748;2023-07-31T03:43:22;99801.22;;;14.45;100.00
34925;BME280;21130;51.728;8.748;2023-07-31T03:45:50;99799.25;;;14.46;100.00
34925;BME280;21130;51.728;8.748;2023-07-31T03:48:16;99798.41;;;14.45;100.00
34925;BME280;21130;51.728;8.748;2023-07-31T03:50:43;99790.91;;;14.41;100.00
34925;BME280;21130;51.728;8.748;2023-07-31T03:53:09;99794.81;;;14.40;100.00
34925;BME280;21130;51.728;8.748;2023-07-31T03:55:36;99801.78;;;14.42;100.00
34925;BME280;21130;51.728;8.748;2023-07-31T03:58:02;99787.84;;;14.42;100.00
34925;BME280;21130;51.728;8.748;2023-07-31T04:00:30;99790.03;;;14.45;100.00
34925;BME280;21130;51.728;8.748;2023-07-31T04:02:57;99793.94;;;14.44;100.00
34925;BME280;21130;51.728;8.748;2023-07-31T04:05:23;99788.94;;;14.41;100.00
34925;BME280;21130;51.728;8.748;2023-07-31T04:07:50;99792.56;;;14.42;100.00
34925;BME280;21130;51.728;8.748;2023-07-31T04:10:16;99787.53;;;14.44;100.00
34925;BME280;21130;51.728;8.748;2023-07-31T04:12:43;99794.50;;;14.46;100.00
34925;BME280;21130;51.728;8.748;2023-07-31T04:15:10;99789.22;;;14.45;100.00
34925;BME280;21130;51.728;8.748;2023-07-31T04:17:37;99797.84;;;14.48;100.00
34925;BME280;21130;51.728;8.748;2023-07-31T04:20:05;99801.75;;;14.47;100.00
34925;BME280;21130;51.728;8.748;2023-07-31T04:22:32;99801.72;;;14.53;100.00
34925;BME280;21130;51.728;8.748;2023-07-31T04:24:59;99798.94;;;14.58;100.00
34925;BME280;21130;51.728;8.748;2023-07-31T04:27:27;99785.25;;;14.56;100.00
34925;BME280;21130;51.728;8.748;2023-07-31T04:29:54;99793.91;;;14.60;100.00
34925;BME280;21130;51.728;8.748;2023-07-31T04:32:20;99786.34;;;14.60;100.00
34925;BME280;21130;51.728;8.748;2023-07-31T04:34:48;99788.31;;;14.60;100.00
34925;BME280;21130;51.728;8.748;2023-07-31T04:37:15;99772.06;;;14.62;100.00
34925;BME280;21130;51.728;8.748;2023-07-31T04:39:41;99788.56;;;14.63;100.00
34925;BME280;21130;51.728;8.748;2023-07-31T04:42:08;99778.53;;;14.62;100.00
34925;BME280;21130;51.728;8.748;2023-07-31T04:44:35;99772.38;;;14.60;100.00
34925;BME280;21130;51.728;8.748;2023-07-31T04:47:01;99777.66;;;14.62;100.00
34925;BME280;21130;51.728;8.748;2023-07-31T04:49:28;99789.38;;;14.64;100.00
34925;BME280;21130;51.728;8.748;2023-07-31T04:51:56;99787.41;;;14.64;100.00
34925;BME280;21130;51.728;8.748;2023-07-31T04:54:22;99779.31;;;14.68;100.00
34925;BME280;21130;51.728;8.748;2023-07-31T04:56:49;99775.69;;;14.67;100.00
34925;BME280;21130;51.728;8.748;2023-07-31T04:59:15;99784.91;;;14.68;100.00
34925;BME280;21130;51.728;8.748;2023-07-31T05:01:41;99781.81;;;14.69;100.00
34925;BME280;21130;51.728;8.748;2023-07-31T05:04:11;99772.56;;;14.74;100.00
34925;BME280;21130;51.728;8.748;2023-07-31T05:06:38;99778.69;;;14.76;100.00
34925;BME280;21130;51.728;8.748;2023-07-31T05:09:06;99777.00;;;14.80;100.00
34925;BME280;21130;51.728;8.748;2023-07-31T05:17:48;99772.13;;;14.96;100.00
34925;BME280;21130;51.728;8.748;2023-07-31T05:20:14;99775.69;;;15.02;100.00
34925;BME280;21130;51.728;8.748;2023-07-31T05:22:41;99772.84;;;15.07;100.00
34925;BME280;21130;51.728;8.748;2023-07-31T05:25:09;99771.69;;;15.13;100.00
34925;BME280;21130;51.728;8.748;2023-07-31T05:27:35;99764.97;;;15.14;100.00
34925;BME280;21130;51.728;8.748;2023-07-31T05:30:02;99775.03;;;15.15;100.00
34925;BME280;21130;51.728;8.748;2023-07-31T05:32:29;99769.09;;;15.22;100.00
34925;BME280;21130;51.728;8.748;2023-07-31T05:34:55;99772.16;;;15.25;100.00
34925;BME280;21130;51.728;8.748;2023-07-31T05:37:22;99775.72;;;15.31;100.00
34925;BME280;21130;51.728;8.748;2023-07-31T05:39:49;99762.28;;;15.33;100.00
34925;BME280;21130;51.728;8.748;2023-07-31T05:42:17;99776.25;;;15.33;100.00
34925;BME280;21130;51.728;8.748;2023-07-31T05:44:43;99778.22;;;15.32;100.00
34925;BME280;21130;51.728;8.748;2023-07-31T05:47:10;99776.75;;;15.40;100.00
34925;BME280;21130;51.728;8.748;2023-07-31T05:49:36;99772.00;;;15.41;100.00
34925;BME280;21130;51.728;8.748;2023-07-31T05:52:03;99777.53;;;15.46;100.00
34925;BME280;21130;51.728;8.748;2023-07-31T05:54:31;99776.38;;;15.47;100.00
34925;BME280;21130;51.728;8.748;2023-07-31T05:56:58;99774.41;;;15.47;100.00
34925;BME280;21130;51.728;8.748;2023-07-31T05:59:26;99778.06;;;15.48;100.00
34925;BME280;21130;51.728;8.748;2023-07-31T06:01:53;99775.03;;;15.44;100.00
34925;BME280;21130;51.728;8.748;2023-07-31T06:04:19;99776.09;;;15.48;100.00
34925;BME280;21130;51.728;8.748;2023-07-31T06:06:46;99780.88;;;15.48;100.00
34925;BME280;21130;51.728;8.748;2023-07-31T06:09:12;99775.28;;;15.48;100.00
34925;BME280;21130;51.728;8.748;2023-07-31T06:11:39;99773.38;;;15.43;100.00
34925;BME280;21130;51.728;8.748;2023-07-31T06:14:05;99769.91;;;15.51;100.00
34925;BME280;21130;51.728;8.748;2023-07-31T06:16:33;99764.31;;;15.51;100.00
34925;BME280;21130;51.728;8.748;2023-07-31T06:19:01;99759.22;;;15.59;100.00
34925;BME280;21130;51.728;8.748;2023-07-31T06:21:27;99759.22;;;15.59;100.00
34925;BME280;21130;51.728;8.748;2023-07-31T06:23:55;99765.25;;;15.71;100.00
34925;BME280;21130;51.728;8.748;2023-07-31T06:26:21;99764.44;;;15.70;100.00
34925;BME280;21130;51.728;8.748;2023-07-31T06:28:47;99759.06;;;15.74;100.00
34925;BME280;21130;51.728;8.748;2023-07-31T06:31:14;99761.03;;;15.73;100.00
34925;BME280;21130;51.728;8.748;2023-07-31T06:33:42;99758.72;;;15.81;100.00
34925;BME280;21130;51.728;8.748;2023-07-31T06:36:08;99754.19;;;15.85;100.00
34925;BME280;21130;51.728;8.748;2023-07-31T06:38:35;99755.84;;;15.86;100.00
34925;BME280;21130;51.728;8.748;2023-07-31T06:41:02;99742.69;;;15.86;100.00
34925;BME280;21130;51.728;8.748;2023-07-31T06:43:29;99746.38;;;15.82;100.00
34925;BME280;21130;51.728;8.748;2023-07-31T06:45:55;99742.69;;;15.86;100.00
34925;BME280;21130;51.728;8.748;2023-07-31T06:48:22;99745.09;;;15.74;100.00
34925;BME280;21130;51.728;8.748;2023-07-31T06:50:51;99739.25;;;15.70;100.00
34925;BME280;21130;51.728;8.748;2023-07-31T06:53:17;99737.06;;;15.62;100.00
34925;BME280;21130;51.728;8.748;2023-07-31T06:55:44;99739.91;;;15.57;100.00
34925;BME280;21130;51.728;8.748;2023-07-31T06:58:10;99742.78;;;15.52;100.00
34925;BME280;21130;51.728;8.748;2023-07-31T07:00:37;99741.94;;;15.51;100.00
34925;BME280;21130;51.728;8.748;2023-07-31T07:03:03;99733.03;;;15.49;100.00
34925;BME280;21130;51.728;8.748;2023-07-31T07:05:30;99734.44;;;15.47;100.00
34925;BME280;21130;51.728;8.748;2023-07-31T07:07:57;99728.84;;;15.47;100.00
34925;BME280;21130;51.728;8.748;2023-07-31T07:10:24;99731.06;;;15.50;100.00
34925;BME280;21130;51.728;8.748;2023-07-31T07:12:50;99728.28;;;15.50;100.00
34925;BME280;21130;51.728;8.748;2023-07-31T07:15:17;99737.19;;;15.52;100.00
34925;BME280;21130;51.728;8.748;2023-07-31T07:17:43;99730.53;;;15.48;100.00
34925;BME280;21130;51.728;8.748;2023-07-31T07:20:10;99729.69;;;15.47;100.00
34925;BME280;21130;51.728;8.748;2023-07-31T07:22:43;99724.88;;;15.53;100.00
34925;BME280;21130;51.728;8.748;2023-07-31T07:25:11;99725.94;;;15.57;100.00
34925;BME280;21130;51.728;8.748;2023-07-31T07:27:37;99721.13;;;15.63;100.00
34925;BME280;21130;51.728;8.748;2023-07-31T07:30:05;99718.56;;;15.66;100.00
34925;BME280;21130;51.728;8.748;2023-07-31T07:32:31;99709.94;;;15.63;100.00
34925;BME280;21130;51.728;8.748;2023-07-31T07:34:58;99710.19;;;15.66;100.00
34925;BME280;21130;51.728;8.748;2023-07-31T07:37:24;99709.31;;;15.71;100.00
34925;BME280;21130;51.728;8.748;2023-07-31T07:39:51;99707.88;;;15.73;100.00
34925;BME280;21130;51.728;8.748;2023-07-31T07:42:19;99718.78;;;15.75;100.00
34925;BME280;21130;51.728;8.748;2023-07-31T07:44:45;99725.44;;;15.79;100.00
34925;BME280;21130;51.728;8.748;2023-07-31T07:47:12;99729.06;;;15.80;100.00
34925;BME280;21130;51.728;8.748;2023-07-31T07:49:39;99741.63;;;15.82;100.00
34925;BME280;21130;51.728;8.748;2023-07-31T07:52:06;99747.00;;;15.79;100.00
34925;BME280;21130;51.728;8.748;2023-07-31T07:54:32;99750.69;;;15.69;100.00
34925;BME280;21130;51.728;8.748;2023-07-31T07:56:59;99752.19;;;15.61;100.00
34925;BME280;21130;51.728;8.748;2023-07-31T07:59:27;99749.78;;;15.49;100.00
34925;BME280;21130;51.728;8.748;2023-07-31T08:01:53;99752.09;;;15.42;100.00
34925;BME280;21130;51.728;8.748;2023-07-31T08:04:20;99751.66;;;15.35;100.00
34925;BME280;21130;51.728;8.748;2023-07-31T08:06:46;99754.72;;;15.33;100.00
34925;BME280;21130;51.728;8.748;2023-07-31T08:09:13;99754.72;;;15.33;100.00
34925;BME280;21130;51.728;8.748;2023-07-31T08:11:39;99751.34;;;15.37;100.00
34925;BME280;21130;51.728;8.748;2023-07-31T08:14:06;99748.91;;;15.30;100.00
34925;BME280;21130;51.728;8.748;2023-07-31T08:16:33;99744.09;;;15.36;100.00
34925;BME280;21130;51.728;8.748;2023-07-31T08:19:00;99738.38;;;15.46;100.00
34925;BME280;21130;51.728;8.748;2023-07-31T08:21:26;99735.19;;;15.58;100.00
34925;BME280;21130;51.728;8.748;2023-07-31T08:23:53;99740.38;;;15.69;100.00
34925;BME280;21130;51.728;8.748;2023-07-31T08:26:20;99731.50;;;15.86;100.00
34925;BME280;21130;51.728;8.748;2023-07-31T08:28:46;99733.63;;;15.94;100.00
34925;BME280;21130;51.728;8.748;2023-07-31T08:31:12;99730.69;;;16.05;100.00
34925;BME280;21130;51.728;8.748;2023-07-31T08:33:40;99728.38;;;16.12;100.00
34925;BME280;21130;51.728;8.748;2023-07-31T08:37:47;99717.16;;;16.12;100.00
34925;BME280;21130;51.728;8.748;2023-07-31T08:40:14;99715.97;;;16.18;100.00
34925;BME280;21130;51.728;8.748;2023-07-31T08:42:44;99709.78;;;16.21;100.00
34925;BME280;21130;51.728;8.748;2023-07-31T08:45:14;99709.31;;;16.33;100.00
34925;BME280;21130;51.728;8.748;2023-07-31T08:47:43;99708.09;;;16.39;100.00
34925;BME280;21130;51.728;8.748;2023-07-31T08:50:12;99699.63;;;16.44;100.00
34925;BME280;21130;51.728;8.748;2023-07-31T08:52:39;99691.97;;;16.50;100.00
34925;BME280;21130;51.728;8.748;2023-07-31T08:55:08;99692.28;;;16.48;100.00
34925;BME280;21130;51.728;8.748;2023-07-31T08:57:36;99693.72;;;16.46;100.00
34925;BME280;21130;51.728;8.748;2023-07-31T09:00:04;99696.53;;;16.46;100.00
34925;BME280;21130;51.728;8.748;2023-07-31T09:02:37;99683.44;;;16.41;100.00
34925;BME280;21130;51.728;8.748;2023-07-31T09:05:05;99684.78;;;16.44;100.00
34925;BME280;21130;51.728;8.748;2023-07-31T09:07:34;99686.00;;;16.37;100.00
34925;BME280;21130;51.728;8.748;2023-07-31T09:10:01;99678.81;;;16.31;100.00
34925;BME280;21130;51.728;8.748;2023-07-31T09:12:29;99690.84;;;16.32;100.00
34925;BME280;21130;51.728;8.748;2023-07-31T09:14:56;99687.84;;;16.28;100.00
34925;BME280;21130;51.728;8.748;2023-07-31T09:17:28;99677.91;;;16.36;100.00
34925;BME280;21130;51.728;8.748;2023-07-31T09:19:56;99671.78;;;16.34;100.00
34925;BME280;21130;51.728;8.748;2023-07-31T09:22:31;99682.28;;;16.42;100.00
34925;BME280;21130;51.728;8.748;2023-07-31T09:25:14;99680.84;;;16.45;100.00
34925;BME280;21130;51.728;8.748;2023-07-31T09:27:50;99676.44;;;16.57;100.00
34925;BME280;21130;51.728;8.748;2023-07-31T09:30:18;99662.25;;;16.68;100.00
34925;BME280;21130;51.728;8.748;2023-07-31T09:32:45;99671.03;;;16.80;100.00
34925;BME280;21130;51.728;8.748;2023-07-31T09:35:20;99665.44;;;16.80;100.00
34925;BME280;21130;51.728;8.748;2023-07-31T09:37:51;99658.13;;;16.98;100.00
34925;BME280;21130;51.728;8.748;2023-07-31T09:40:31;99655.72;;;16.91;100.00
34925;BME280;21130;51.728;8.748;2023-07-31T09:43:01;99651.59;;;17.02;100.00
34925;BME280;21130;51.728;8.748;2023-07-31T09:45:28;99651.47;;;17.08;100.00
34925;BME280;21130;51.728;8.748;2023-07-31T09:47:56;99647.03;;;17.06;100.00
34925;BME280;21130;51.728;8.748;2023-07-31T09:50:24;99649.09;;;17.15;100.00
34925;BME280;21130;51.728;8.748;2023-07-31T09:52:51;99641.13;;;17.22;100.00
34925;BME280;21130;51.728;8.748;2023-07-31T09:55:19;99637.59;;;17.30;100.00
34925;BME280;21130;51.728;8.748;2023-07-31T09:57:47;99630.66;;;17.41;100.00
34925;BME280;21130;51.728;8.748;2023-07-31T10:00:17;99632.72;;;17.63;100.00
34925;BME280;21130;51.728;8.748;2023-07-31T10:02:46;99621.91;;;17.84;100.00
34925;BME280;21130;51.728;8.748;2023-07-31T10:05:14;99622.72;;;17.99;100.00
34925;BME280;21130;51.728;8.748;2023-07-31T10:07:43;99624.75;;;18.07;100.00
34925;BME280;21130;51.728;8.748;2023-07-31T10:10:12;99615.44;;;18.20;100.00
34925;BME280;21130;51.728;8.748;2023-07-31T10:12:40;99604.09;;;18.25;100.00
34925;BME280;21130;51.728;8.748;2023-07-31T10:15:08;99604.97;;;18.12;100.00
34925;BME280;21130;51.728;8.748;2023-07-31T10:17:37;99602.16;;;18.12;100.00
34925;BME280;21130;51.728;8.748;2023-07-31T10:20:07;99602.81;;;18.09;100.00
34925;BME280;21130;51.728;8.748;2023-07-31T10:22:35;99593.47;;;18.00;100.00
34925;BME280;21130;51.728;8.748;2023-07-31T10:25:02;99600.66;;;17.92;100.00
34925;BME280;21130;51.728;8.748;2023-07-31T10:27:29;99607.22;;;17.87;100.00
34925;BME280;21130;51.728;8.748;2023-07-31T10:29:57;99604.94;;;17.76;100.00
34925;BME280;21130;51.728;8.748;2023-07-31T10:32:25;99600.09;;;17.81;100.00
34925;BME280;21130;51.728;8.748;2023-07-31T10:34:53;99601.09;;;17.85;100.00
34925;BME280;21130;51.728;8.748;2023-07-31T10:37:22;99602.34;;;17.79;100.00
34925;BME280;21130;51.728;8.748;2023-07-31T10:39:57;99607.25;;;17.74;100.00
34925;BME280;21130;51.728;8.748;2023-07-31T10:42:29;99612.97;;;17.68;100.00
34925;BME280;21130;51.728;8.748;2023-07-31T10:44:57;99605.06;;;17.57;100.00
34925;BME280;21130;51.728;8.748;2023-07-31T10:47:24;99610.78;;;17.38;100.00
34925;BME280;21130;51.728;8.748;2023-07-31T10:49:52;99607.19;;;17.23;100.00
34925;BME280;21130;51.728;8.748;2023-07-31T10:52:20;99611.22;;;17.17;100.00
34925;BME280;21130;51.728;8.748;2023-07-31T10:54:49;99615.13;;;17.02;100.00
34925;BME280;21130;51.728;8.748;2023-07-31T10:57:22;99629.00;;;16.80;100.00
34925;BME280;21130;51.728;8.748;2023-07-31T10:59:50;99634.22;;;16.68;100.00
34925;BME280;21130;51.728;8.748;2023-07-31T11:02:24;99633.41;;;16.67;100.00
34925;BME280;21130;51.728;8.748;2023-07-31T11:05:08;99638.81;;;16.63;100.00
34925;BME280;21130;51.728;8.748;2023-07-31T11:07:47;99633.19;;;16.63;100.00
34925;BME280;21130;51.728;8.748;2023-07-31T11:10:17;99625.38;;;16.79;100.00
34925;BME280;21130;51.728;8.748;2023-07-31T11:12:45;99625.09;;;16.95;100.00
34925;BME280;21130;51.728;8.748;2023-07-31T11:15:12;99611.09;;;16.95;100.00
34925;BME280;21130;51.728;8.748;2023-07-31T11:17:39;99612.13;;;17.13;100.00
34925;BME280;21130;51.728;8.748;2023-07-31T11:20:08;99608.19;;;17.27;100.00
34925;BME280;21130;51.728;8.748;2023-07-31T11:22:35;99613.81;;;17.41;100.00
34925;BME280;21130;51.728;8.748;2023-07-31T11:25:02;99603.53;;;17.51;100.00
34925;BME280;21130;51.728;8.748;2023-07-31T11:27:29;99605.06;;;17.57;100.00
34925;BME280;21130;51.728;8.748;2023-07-31T11:30:00;99591.34;;;17.69;100.00
34925;BME280;21130;51.728;8.748;2023-07-31T11:32:26;99599.63;;;17.88;100.00
34925;BME280;21130;51.728;8.748;2023-07-31T11:34:53;99587.19;;;17.80;100.00
34925;BME280;21130;51.728;8.748;2023-07-31T11:37:22;99579.16;;;17.87;100.00
34925;BME280;21130;51.728;8.748;2023-07-31T11:39:58;99583.44;;;17.85;100.00
34925;BME280;21130;51.728;8.748;2023-07-31T11:42:35;99570.72;;;17.87;100.00
34925;BME280;21130;51.728;8.748;2023-07-31T11:45:02;99583.00;;;17.78;100.00
34925;BME280;21130;51.728;8.748;2023-07-31T11:47:29;99584.97;;;17.77;100.00
34925;BME280;21130;51.728;8.748;2023-07-31T11:49:58;99575.72;;;17.77;100.00
34925;BME280;21130;51.728;8.748;2023-07-31T11:52:27;99578.97;;;17.84;100.00
34925;BME280;21130;51.728;8.748;2023-07-31T11:54:54;99584.78;;;17.87;100.00
34925;BME280;21130;51.728;8.748;2023-07-31T11:57:21;99581.88;;;17.79;100.00
34925;BME280;21130;51.728;8.748;2023-07-31T11:59:49;99580.09;;;17.83;100.00
34925;BME280;21130;51.728;8.748;2023-07-31T12:02:17;99575.97;;;17.66;100.00
34925;BME280;21130;51.728;8.748;2023-07-31T12:04:46;99580.53;;;17.62;100.00
34925;BME280;21130;51.728;8.748;2023-07-31T12:07:13;99584.16;;;17.63;100.00
34925;BME280;21130;51.728;8.748;2023-07-31T12:09:52;99578.78;;;17.53;100.00
34925;BME280;21130;51.728;8.748;2023-07-31T12:12:20;99573.28;;;17.47;100.00
34925;BME280;21130;51.728;8.748;2023-07-31T12:14:47;99580.97;;;17.56;100.00
34925;BME280;21130;51.728;8.748;2023-07-31T12:17:14;99579.81;;;17.57;100.00
34925;BME280;21130;51.728;8.748;2023-07-31T12:19:41;99580.34;;;17.59;100.00
34925;BME280;21130;51.728;8.748;2023-07-31T12:22:11;99569.53;;;17.66;100.00
34925;BME280;21130;51.728;8.748;2023-07-31T12:24:39;99569.22;;;17.81;100.00
34925;BME280;21130;51.728;8.748;2023-07-31T12:27:10;99575.72;;;17.90;100.00
34925;BME280;21130;51.728;8.748;2023-07-31T12:29:38;99568.84;;;17.97;100.00
34925;BME280;21130;51.728;8.748;2023-07-31T12:32:05;99558.97;;;18.22;100.00
34925;BME280;21130;51.728;8.748;2023-07-31T12:34:44;99549.97;;;18.33;100.00
34925;BME280;21130;51.728;8.748;2023-07-31T12:37:10;99557.88;;;18.31;100.00
34925;BME280;21130;51.728;8.748;2023-07-31T12:39:37;99548.69;;;18.40;100.00
34925;BME280;21130;51.728;8.748;2023-07-31T12:42:04;99548.69;;;18.40;100.00
34925;BME280;21130;51.728;8.748;2023-07-31T12:44:32;99546.81;;;18.35;100.00
34925;BME280;21130;51.728;8.748;2023-07-31T12:46:59;99547.66;;;18.13;100.00
34925;BME280;21130;51.728;8.748;2023-07-31T12:49:25;99544.28;;;18.02;100.00
34925;BME280;21130;51.728;8.748;2023-07-31T12:51:52;99548.28;;;17.87;100.00
34925;BME280;21130;51.728;8.748;2023-07-31T12:54:19;99549.09;;;17.88;100.00
34925;BME280;21130;51.728;8.748;2023-07-31T12:56:45;99546.31;;;17.74;100.00
34925;BME280;21130;51.728;8.748;2023-07-31T12:59:12;99550.19;;;17.64;100.00
34925;BME280;21130;51.728;8.748;2023-07-31T13:01:41;99559.25;;;17.61;100.00